• Join FlightAware (Why Join?)
  • Login
  • US Flag 
12:16PM EDT


 

Airport Tracker/Info


-or-


 

Live Flight TrackerFlight Track Log ✈ FIV617 ✈ 21-Jun-2013 ✈ KLAS - KLBB

Flight Track Log - Related Links

Times and Time Zones

All times are in EDT time to prevent confusion due to time zone crossing. See the FIV617 flight status page for this flight to view local times or setup timezone preferences in your user account.

Time Position Orientation Groundspeed Altitude Reporting Facility
EDT Latitude Longitude Course Direction KTS MPH feet Rate Location/Type
05:31PM 36.0747 -115.1714 206° Southwest 161 185 2,900  Level Los Angeles Center
05:33PM 36.0175 -115.2061 206° Southwest 214 246 5,700 2,220 Climbing Los Angeles Center
05:34PM 35.9706 -115.2797 232° Southwest 266 306 7,800 2,400 Climbing Los Angeles Center
05:35PM 35.8950 -115.2714 175° South 277 319 10,800 3,000 Climbing Los Angeles Center
05:36PM 35.8461 -115.1828 124° Southeast 316 364 14,000 2,880 Climbing Los Angeles Center
05:37PM 35.8236 -115.0708 104° East 341 392 16,700 2,400 Climbing Los Angeles Center
05:38PM 35.8319 -114.9558 85° East 357 411 19,000 2,340 Climbing Los Angeles Center
05:39PM 35.8450 -114.8047 84° East 372 428 21,700 2,400 Climbing Los Angeles Center
05:40PM 35.8567 -114.6714 84° East 390 449 24,000 1,980 Climbing Los Angeles Center
05:41PM 35.8686 -114.5308 84° East 410 472 25,800 1,800 Climbing Los Angeles Center
05:42PM 35.8822 -114.3842 83° East 429 494 27,800 1,740 Climbing Los Angeles Center
05:43PM 35.8742 -114.2344 94° East 438 504 29,500 1,200 Climbing Los Angeles Center
05:44PM 35.8544 -114.0803 99° East 453 521 30,300 720 Climbing Los Angeles Center
05:45PM 35.8303 -113.8833 99° East 482 555 31,100 720 Climbing Los Angeles Center
05:46PM 35.8086 -113.7119 99° East 502 578 31,900 660 Climbing Los Angeles Center
05:47PM 35.7883 -113.5533 99° East 508 585 32,500 720 Climbing Los Angeles Center
05:48PM 35.7664 -113.3800 99° East 513 590 33,500 1,020 Climbing Los Angeles Center
05:49PM 35.7389 -113.1714 99° East 515 593 34,700 1,020 Climbing Los Angeles Center
05:50PM 35.7153 -112.9978 99° East 513 590 35,700 960 Climbing Los Angeles Center
05:51PM 35.6928 -112.8242 99° East 511 588 36,700 960 Climbing Los Angeles Center
05:52PM 35.6675 -112.6378 99° East 504 580 37,800 960 Climbing Los Angeles Center
05:53PM 35.6458 -112.4864 100° East 499 574 38,700 900 Climbing Los Angeles Center
05:54PM 35.6222 -112.3236 100° East 488 562 39,700 1,020 Climbing Los Angeles Center
05:55PM 35.5953 -112.1308 100° East 479 551 40,900 600 Climbing Los Angeles Center
05:56PM 35.5733 -111.9725 100° East 472 543 41,000  Climbing Los Angeles Center
05:57PM 35.5500 -111.8097 100° East 484 557 41,000  Level Los Angeles Center
05:58PM 35.5258 -111.6453 100° East 488 562 41,000  Level Albuquerque Center
06:00PM 35.5008 -111.4781 100° East 497 572 41,000  Level Albuquerque Center
06:01PM 35.4714 -111.2814 100° East 501 577 41,000  Level Albuquerque Center
06:02PM 35.4486 -111.1217 100° East 499 574 41,000  Level Albuquerque Center
06:03PM 35.4194 -110.9369 101° East 496 571 41,000  Level Albuquerque Center
06:04PM 35.3958 -110.7767 100° East 499 574 41,000  Level Albuquerque Center
06:05PM 35.3672 -110.5911 101° East 498 573 41,000  Level Albuquerque Center
06:06PM 35.3417 -110.4322 101° East 498 573 41,000  Level Albuquerque Center
06:07PM 35.3131 -110.2467 101° East 498 573 41,000  Level Albuquerque Center
06:08PM 35.2878 -110.0894 101° East 495 570 41,000  Level Albuquerque Center
06:09PM 35.2597 -109.9044 100° East 496 571 41,000  Level Albuquerque Center
06:10PM 35.2347 -109.7464 101° East 496 571 41,000  Level Albuquerque Center
06:11PM 35.2036 -109.5608 102° East 499 574 41,000  Level Albuquerque Center
06:12PM 35.1783 -109.4036 101° East 497 572 41,000  Level Albuquerque Center
06:13PM 35.1528 -109.2469 101° East 494 568 41,000  Level Albuquerque Center
06:14PM 35.1219 -109.0614 101° East 498 573 41,000  Level Albuquerque Center
06:15PM 35.0944 -108.9047 102° East 497 572 41,000  Level Albuquerque Center
06:16PM 35.0647 -108.7208 101° East 496 571 41,000  Level Albuquerque Center
06:17PM 35.0372 -108.5650 102° East 494 568 41,000  Level Albuquerque Center
06:18PM 35.0056 -108.3833 102° East 492 566 41,000  Level Albuquerque Center
06:19PM 34.9786 -108.2267 102° East 493 567 41,000  Level Albuquerque Center
06:20PM 34.9453 -108.0450 103° East 494 568 41,000  Level Albuquerque Center
06:21PM 34.9183 -107.8886 102° East 493 567 41,000  Level Albuquerque Center
06:22PM 34.8906 -107.7367 103° East 494 568 41,000  Level Albuquerque Center
06:23PM 34.8553 -107.5431 102° East 491 565 41,000  Level Albuquerque Center
06:24PM 34.8253 -107.3806 103° East 493 567 41,000  Level Albuquerque Center
06:25PM 34.7944 -107.2181 103° East 496 571 41,000  Level Albuquerque Center
06:26PM 34.7636 -107.0569 103° East 496 571 41,000  Level Albuquerque Center
06:27PM 34.7331 -106.8936 103° East 500 575 41,000  Level Albuquerque Center
06:28PM 34.6958 -106.6986 103° East 502 578 41,000  Level Albuquerque Center
06:29PM 34.6647 -106.5361 103° East 499 574 41,000  Level Albuquerque Center
06:30PM 34.6342 -106.3742 103° East 497 572 41,000  Level Albuquerque Center
06:32PM 34.5986 -106.1975 104° East 498 573 41,000  Level Albuquerque Center
06:33PM 34.5678 -106.0331 103° East 498 573 41,000  Level Albuquerque Center
06:34PM 34.5347 -105.8700 104° East 495 570 41,000  Level Albuquerque Center
06:35PM 34.5036 -105.7061 103° East 496 571 41,000  Level Albuquerque Center
06:36PM 34.4700 -105.5419 104° East 497 572 41,000  Level Albuquerque Center
06:37PM 34.4325 -105.3500 103° East 499 574 41,000  Level Albuquerque Center
06:38PM 34.3997 -105.1875 104° East 496 571 41,000  Level Albuquerque Center
06:39PM 34.3658 -105.0244 104° East 496 571 41,000  Level Albuquerque Center
06:40PM 34.3339 -104.8631 103° East 494 568 41,000  Level Albuquerque Center
06:41PM 34.3000 -104.7017 104° East 492 566 41,000  Level Albuquerque Center
06:42PM 34.2658 -104.5406 104° East 493 567 41,000  Level Albuquerque Center
06:43PM 34.2325 -104.3803 104° East 491 565 41,000  Level Albuquerque Center
06:44PM 34.1936 -104.1900 104° East 495 570 41,000  Level Albuquerque Center
06:45PM 34.1592 -104.0281 104° East 496 571 41,000  Level Albuquerque Center
06:46PM 34.1247 -103.8681 105° East 494 568 41,000 -780 Level Albuquerque Center
06:47PM 34.0906 -103.7069 104° East 493 567 39,500 -2,160 Descending Albuquerque Center
06:48PM 34.0569 -103.5519 105° East 491 565 36,600 -2,880 Descending Albuquerque Center
06:49PM 34.0219 -103.3906 105° East 486 559 33,600 -2,940 Descending Albuquerque Center
06:50PM 33.9875 -103.2400 105° East 482 555 30,600 -2,940 Descending Albuquerque Center
06:51PM 33.9531 -103.0844 105° East 481 554 27,600 -3,420 Descending Albuquerque Center
06:52PM 33.9108 -102.8972 105° East 483 556 23,600 -3,780 Descending Albuquerque Center
06:53PM 33.8781 -102.7525 105° East 463 533 19,900 -3,300 Descending Albuquerque Center
06:54PM 33.8550 -102.6172 102° East 430 495 16,900 -2,940 Descending Albuquerque Center
06:55PM 33.8325 -102.4892 102° East 400 460 13,900 -2,400 Descending Albuquerque Center
06:56PM 33.7975 -102.3697 109° East 362 417 12,000 -1,740 Descending Fort Worth Center
06:57PM 33.7678 -102.2756 111° Southeast 341 392 10,400 -1,560 Descending Fort Worth Center
06:58PM 33.7428 -102.1692 106° East 311 358 8,900 -1,500 Descending Fort Worth Center
06:59PM 33.7289 -102.0936 102° East 269 310 7,500 -1,560 Descending Fort Worth Center
07:00PM 33.7283 -101.9961 90° East 264 304 5,800 -1,260 Descending Fort Worth Center
07:01PM 33.7289 -101.9214 89° East 248 285 5,000 -780 Descending Fort Worth Center
07:02PM 33.7397 -101.8569 79° East 214 246 4,300 -600 Descending Fort Worth Center
07:03PM 33.7114 -101.8306 142° Southeast 118 136 3,800 -480 Descending Fort Worth Center
07:04PM 33.6842 -101.8317 182° South 98 113 3,400 -300 Descending Fort Worth Center
07:05PM 33.6656 -101.8306 177° South 85 98 3,200 -120 Descending Fort Worth Center
07:06PM 33.6444 -101.8347 189° South 67 77 3,200  Level Fort Worth Center
07:09PM 33.6500 -101.8167 121° Southeast  Level FlightAware Approximate
07:16PM 33.6637 -101.8206 121° Southeast  Level Estimated
07:17PM 33.6637 -101.8206 121° Southeast  Level Estimated
07:18PM 33.6637 -101.8206 121° Southeast  Level Estimated
07:19PM 33.6637 -101.8206 121° Southeast  Level Estimated
07:20PM 33.6637 -101.8206 121° Southeast  Level Estimated
07:21PM 33.6637 -101.8206 121° Southeast  Level Estimated